createdAt,value
2018-03-29T00:01:04.187Z,9.13
2018-03-29T00:06:04.677Z,9.12
2018-03-29T00:11:04.252Z,9.15
2018-03-29T00:16:04.518Z,9.13
2018-03-29T00:21:04.015Z,9.11
2018-03-29T00:26:04.245Z,9.14
2018-03-29T00:31:04.557Z,9.12
2018-03-29T00:36:04.035Z,9.12
2018-03-29T00:41:03.618Z,9.09
2018-03-29T00:46:03.879Z,9.13
2018-03-29T00:51:04.342Z,9.11
2018-03-29T00:56:03.619Z,9.12
2018-03-29T01:01:03.895Z,9.11
2018-03-29T01:06:04.346Z,9.10
2018-03-29T01:11:03.919Z,9.10
2018-03-29T01:16:04.231Z,9.14
2018-03-29T01:21:03.755Z,9.13
2018-03-29T01:26:03.980Z,9.12
2018-03-29T01:31:04.281Z,9.11
2018-03-29T01:36:03.761Z,9.11
2018-03-29T01:41:04.324Z,9.10
2018-03-29T01:46:03.623Z,9.10
2018-03-29T01:51:04.134Z,9.09
2018-03-29T01:56:04.309Z,9.06
2018-03-29T02:01:03.646Z,9.10
2018-03-29T02:06:04.098Z,9.08
2018-03-29T02:11:03.738Z,9.07
2018-03-29T02:16:04.007Z,9.08
2018-03-29T02:21:04.501Z,9.08
2018-03-29T02:26:03.681Z,9.08
2018-03-29T02:31:04.009Z,9.08
2018-03-29T02:36:04.494Z,9.04
2018-03-29T02:41:04.115Z,9.06
2018-03-29T02:46:04.380Z,9.05
2018-03-29T02:51:03.894Z,9.05
2018-03-29T02:56:04.074Z,9.06
2018-03-29T03:01:04.391Z,9.05
2018-03-29T03:06:03.883Z,9.05
2018-03-29T03:11:04.435Z,9.03
2018-03-29T03:16:03.739Z,9.05
2018-03-29T03:21:04.202Z,9.05
2018-03-29T03:26:04.444Z,9.04
2018-03-29T03:31:03.764Z,9.03
2018-03-29T03:36:04.224Z,9.03
2018-03-29T03:41:03.848Z,9.05
2018-03-29T03:46:04.081Z,9.01
2018-03-29T03:51:04.614Z,9.01
2018-03-29T03:56:03.834Z,9.02
2018-03-29T04:01:04.111Z,9.00
2018-03-29T04:06:04.608Z,9.00
2018-03-29T04:11:04.211Z,9.00
2018-03-29T04:16:04.456Z,8.99
2018-03-29T04:21:03.957Z,9.01
2018-03-29T04:26:03.890Z,8.98
2018-03-29T04:31:04.260Z,8.99
2018-03-29T04:36:03.738Z,9.01
2018-03-29T04:41:04.241Z,9.01
2018-03-29T04:46:04.563Z,8.98
2018-03-29T04:51:04.068Z,8.99
2018-03-29T04:56:04.256Z,9.00
2018-03-29T05:01:03.619Z,9.03
2018-03-29T05:06:04.067Z,9.00
2018-03-29T05:11:03.660Z,9.00
2018-03-29T05:16:03.899Z,9.01
2018-03-29T05:21:04.402Z,9.02
2018-03-29T05:26:03.641Z,8.52
2018-03-29T05:31:03.924Z,8.67
2018-03-29T05:36:04.357Z,8.82
2018-03-29T05:41:03.911Z,8.88
2018-03-29T05:46:04.220Z,8.88
2018-03-29T05:51:03.714Z,8.45
2018-03-29T05:56:03.903Z,8.85
2018-03-29T06:01:04.200Z,7.82
2018-03-29T06:06:04.629Z,8.44
2018-03-29T06:11:04.326Z,8.13
2018-03-29T06:16:04.544Z,8.19
2018-03-29T06:21:03.968Z,8.29
2018-03-29T06:26:04.181Z,8.41
2018-03-29T06:31:04.478Z,8.49
2018-03-29T06:36:03.981Z,8.58
2018-03-29T06:41:04.535Z,8.62
2018-03-29T06:46:03.818Z,8.66
2018-03-29T06:51:04.295Z,8.70
2018-03-29T06:56:04.461Z,8.73
2018-03-29T07:01:04.202Z,8.76
2018-03-29T07:06:04.237Z,8.76
2018-03-29T07:11:03.835Z,8.78
2018-03-29T07:16:04.082Z,8.81
2018-03-29T07:21:04.588Z,8.80
2018-03-29T07:26:03.733Z,8.83
2018-03-29T07:31:04.097Z,8.84
2018-03-29T07:36:04.527Z,8.84
2018-03-29T07:41:04.088Z,8.84
2018-03-29T07:46:04.410Z,8.86
2018-03-29T07:51:03.905Z,8.89
2018-03-29T07:56:04.286Z,8.88
2018-03-29T08:01:04.398Z,8.89
2018-03-29T08:06:03.868Z,8.90
2018-03-29T08:11:04.431Z,8.91
2018-03-29T08:16:03.789Z,8.91
2018-03-29T08:21:04.195Z,8.90
2018-03-29T08:26:04.439Z,8.90
2018-03-29T08:31:03.724Z,8.90
2018-03-29T08:36:04.261Z,8.90
2018-03-29T08:41:03.757Z,8.91
2018-03-29T08:46:04.042Z,8.88
2018-03-29T08:51:04.480Z,8.91
2018-03-29T08:56:03.723Z,8.89
2018-03-29T09:01:04.028Z,8.91
2018-03-29T09:06:04.491Z,8.91
2018-03-29T09:11:04.063Z,8.91
2018-03-29T09:16:04.391Z,8.91
2018-03-29T09:21:03.996Z,8.92
2018-03-29T09:26:04.121Z,8.92
2018-03-29T09:31:04.379Z,8.89
2018-03-29T09:36:03.839Z,8.90
2018-03-29T09:41:04.442Z,8.90
2018-03-29T09:46:03.720Z,8.89
2018-03-29T09:51:04.194Z,8.90
2018-03-29T09:56:04.385Z,8.91
2018-03-29T10:01:03.680Z,8.90
2018-03-29T10:06:04.178Z,8.91
2018-03-29T10:11:03.758Z,8.89
2018-03-29T10:16:04.031Z,8.91
2018-03-29T10:21:04.530Z,8.90
2018-03-29T10:26:03.747Z,8.90
2018-03-29T10:31:04.090Z,8.90
2018-03-29T10:36:04.548Z,8.88
2018-03-29T10:41:04.161Z,8.88
2018-03-29T10:46:04.436Z,8.89
2018-03-29T10:51:03.929Z,8.90
2018-03-29T10:56:04.172Z,8.89
2018-03-29T11:01:04.472Z,8.87
2018-03-29T11:06:03.968Z,8.89
2018-03-29T11:11:04.534Z,8.88
2018-03-29T11:16:03.853Z,7.95
2018-03-29T11:21:04.334Z,7.95
2018-03-29T11:26:04.558Z,8.10
2018-03-29T11:31:03.839Z,8.02
2018-03-29T11:36:04.321Z,8.39
2018-03-29T11:41:03.918Z,8.47
2018-03-29T11:46:04.201Z,8.51
2018-03-29T11:51:04.658Z,8.54
2018-03-29T11:56:03.905Z,8.59
2018-03-29T12:01:04.216Z,8.40
2018-03-29T12:06:04.646Z,8.52
2018-03-29T12:11:04.278Z,8.53
2018-03-29T12:16:04.575Z,8.56
2018-03-29T12:21:04.028Z,8.55
2018-03-29T12:26:04.252Z,8.56
2018-03-29T12:31:04.558Z,8.59
2018-03-29T12:36:04.018Z,8.63
2018-03-29T12:41:03.648Z,8.60
2018-03-29T12:46:03.906Z,8.64
2018-03-29T12:51:04.501Z,8.67
2018-03-29T12:56:04.555Z,8.68
2018-03-29T13:01:03.861Z,8.69
2018-03-29T13:06:04.390Z,8.72
2018-03-29T13:11:04.575Z,8.74
2018-03-29T13:16:04.149Z,8.12
2018-03-29T13:21:04.679Z,7.80
2018-03-29T13:26:03.858Z,7.87
2018-03-29T13:31:04.234Z,7.95
2018-03-29T13:36:04.693Z,8.11
2018-03-29T13:41:04.256Z,8.26
2018-03-29T13:46:04.511Z,8.27
2018-03-29T13:51:04.032Z,8.27
2018-03-29T13:56:04.215Z,8.34
2018-03-29T14:01:04.535Z,8.34
2018-03-29T14:06:03.994Z,8.23
2018-03-29T14:11:03.627Z,8.24
2018-03-29T14:16:03.885Z,8.11
2018-03-29T14:21:04.395Z,8.12
2018-03-29T14:26:03.826Z,7.94
2018-03-29T14:31:03.904Z,7.93
2018-03-29T14:36:04.687Z,7.99
2018-03-29T14:41:03.985Z,8.07
2018-03-29T14:46:04.304Z,8.13
2018-03-29T14:51:03.735Z,8.20
2018-03-29T14:56:04.312Z,8.21
2018-03-29T15:01:04.621Z,8.22
2018-03-29T15:06:04.243Z,8.33
2018-03-29T15:11:04.659Z,8.34
2018-03-29T15:16:03.611Z,8.35
2018-03-29T15:21:04.470Z,8.43
2018-03-29T15:26:04.318Z,8.23
2018-03-29T15:31:03.652Z,8.23
2018-03-29T15:36:04.091Z,8.33
2018-03-29T15:41:03.748Z,8.32
2018-03-29T15:46:03.904Z,8.34
2018-03-29T15:51:04.401Z,8.32
2018-03-29T15:56:03.615Z,8.34
2018-03-29T16:01:03.921Z,8.33
2018-03-29T16:06:04.380Z,8.39
2018-03-29T16:11:04.029Z,8.41
2018-03-29T16:16:04.311Z,8.47
2018-03-29T16:21:03.795Z,8.43
2018-03-29T16:26:03.940Z,8.47
2018-03-29T16:31:04.303Z,8.48
2018-03-29T16:36:03.803Z,8.54
2018-03-29T16:41:04.385Z,8.53
2018-03-29T16:46:03.701Z,8.59
2018-03-29T16:51:04.187Z,8.58
2018-03-29T16:56:04.406Z,8.61
2018-03-29T17:01:03.839Z,8.61
2018-03-29T17:06:04.160Z,8.62
2018-03-29T17:11:03.766Z,8.61
2018-03-29T17:16:03.993Z,8.63
2018-03-29T17:21:04.534Z,8.65
2018-03-29T17:26:03.733Z,8.68
2018-03-29T17:31:04.031Z,8.67
2018-03-29T17:36:04.669Z,8.70
2018-03-29T17:41:04.067Z,8.65
2018-03-29T17:46:04.330Z,8.72
2018-03-29T17:51:03.806Z,8.69
2018-03-29T17:56:04.000Z,8.70
2018-03-29T18:01:04.520Z,8.70
2018-03-29T18:06:03.880Z,8.71
2018-03-29T18:11:04.386Z,8.72
2018-03-29T18:16:04.036Z,8.74
2018-03-29T18:21:04.741Z,8.73
2018-03-29T18:26:04.402Z,8.75
2018-03-29T18:31:03.699Z,8.77
2018-03-29T18:36:04.136Z,8.76
2018-03-29T18:41:03.758Z,8.75
2018-03-29T18:46:04.079Z,8.78
2018-03-29T18:51:04.576Z,8.78
2018-03-29T18:56:03.736Z,8.77
2018-03-29T19:01:04.071Z,8.78
2018-03-29T19:06:04.468Z,8.79
2018-03-29T19:11:04.111Z,8.77
2018-03-29T19:16:04.400Z,8.78
2018-03-29T19:21:04.443Z,8.79
2018-03-29T19:26:04.115Z,8.79
2018-03-29T19:31:04.381Z,8.78
2018-03-29T19:36:03.987Z,8.79
2018-03-29T19:41:04.462Z,8.78
2018-03-29T19:46:03.838Z,8.78
2018-03-29T19:51:04.241Z,8.79
2018-03-29T19:56:04.457Z,8.78
2018-03-29T20:01:03.973Z,8.77
2018-03-29T20:06:04.262Z,8.78
2018-03-29T20:11:03.809Z,8.78
2018-03-29T20:16:04.115Z,8.75
2018-03-29T20:21:04.728Z,8.37
2018-03-29T20:26:03.840Z,8.50
2018-03-29T20:31:04.170Z,8.58
2018-03-29T20:36:04.741Z,8.61
2018-03-29T20:41:04.295Z,8.64
2018-03-29T20:46:04.477Z,8.66
2018-03-29T20:51:03.993Z,8.52
2018-03-29T20:56:04.198Z,8.55
2018-03-29T21:01:04.960Z,8.62
2018-03-29T21:06:03.970Z,8.66
2018-03-29T21:11:03.611Z,8.66
2018-03-29T21:16:03.885Z,8.70
2018-03-29T21:21:04.394Z,8.70
2018-03-29T21:26:03.654Z,8.70
2018-03-29T21:31:03.926Z,8.70
2018-03-29T21:36:04.520Z,8.70
2018-03-29T21:41:04.125Z,8.71
2018-03-29T21:46:04.269Z,8.71
2018-03-29T21:51:03.769Z,8.71
2018-03-29T21:56:03.959Z,8.71
2018-03-29T22:01:04.225Z,8.72
2018-03-29T22:06:04.673Z,8.72
2018-03-29T22:11:04.254Z,8.72
2018-03-29T22:16:04.944Z,8.72
2018-03-29T22:21:04.068Z,8.72
2018-03-29T22:26:04.250Z,8.72
2018-03-29T22:31:10.281Z,8.72
2018-03-29T22:36:04.757Z,8.71
2018-03-29T22:41:04.471Z,8.71
2018-03-29T22:46:05.204Z,8.72
2018-03-29T22:51:04.350Z,8.72
2018-03-29T22:56:04.979Z,8.73
2018-03-29T23:01:03.911Z,8.71
2018-03-29T23:06:04.752Z,8.72
2018-03-29T23:11:03.951Z,8.71
2018-03-29T23:16:04.245Z,8.73
2018-03-29T23:21:03.913Z,8.73
2018-03-29T23:26:03.961Z,8.73
2018-03-29T23:31:04.274Z,8.72
2018-03-29T23:36:03.838Z,8.72
2018-03-29T23:41:04.345Z,8.74
2018-03-29T23:46:03.652Z,8.72
2018-03-29T23:51:04.128Z,8.73
2018-03-29T23:56:04.357Z,8.72
